Time;durP1;ratioP1;P1;durP2;ratioP2;P2;SDS_P1;SDS_P2;PMS_P1;PMS_P2;Temp;Humidity;BMP_temperature;BMP_pressure;BME280_temperature;BME280_humidity;BME280_pressure;Samples;Min_cycle;Max_cycle;Signal;HPM_P1;HPM_P2
2023/06/14 00:02:20;;;;;;;23.65;13.95;;;;;;;17.01;77.81;100222.65;123833;1102;104293;-77
2023/06/14 00:04:52;;;;;;;25.33;16.50;;;;;;;17.02;77.45;100226.21;123388;1102;104267;-77
2023/06/14 00:07:38;;;;;;;29.07;18.13;;;;;;;17.02;78.00;100229.73;123535;1102;104184;-78
2023/06/14 00:10:11;;;;;;;26.97;17.67;;;;;;;17.00;78.11;100225.30;123543;1100;119088;-77
2023/06/14 00:12:42;;;;;;;28.05;18.00;;;;;;;17.00;78.21;100219.99;123523;1102;104643;-77
2023/06/14 00:15:13;;;;;;;25.67;16.07;;;;;;;17.00;77.76;100222.64;123370;1102;104338;-76
2023/06/14 00:17:47;;;;;;;27.37;17.43;;;;;;;17.02;78.31;100220.91;123320;1102;104258;-78
2023/06/14 00:20:18;;;;;;;26.90;16.87;;;;;;;17.05;77.90;100218.27;123296;1101;104207;-76
2023/06/14 00:22:50;;;;;;;27.33;16.53;;;;;;;17.09;78.35;100221.81;123323;1102;104357;-76
2023/06/14 00:25:21;;;;;;;27.80;16.00;;;;;;;17.10;78.37;100215.64;123387;1102;104521;-76
2023/06/14 00:27:52;;;;;;;24.73;15.93;;;;;;;17.12;78.42;100212.09;123585;1102;104248;-77
2023/06/14 00:30:24;;;;;;;27.10;16.20;;;;;;;17.13;78.54;100213.01;123487;1102;104243;-76
2023/06/14 00:32:55;;;;;;;26.97;16.03;;;;;;;17.14;78.40;100214.75;123371;1102;104287;-77
2023/06/14 00:35:26;;;;;;;26.35;16.90;;;;;;;17.12;78.66;100206.80;123395;1102;104331;-77
2023/06/14 00:37:58;;;;;;;27.03;16.07;;;;;;;17.12;78.44;100205.92;123306;1100;104329;-76
2023/06/14 00:40:29;;;;;;;25.60;16.07;;;;;;;17.11;78.85;100210.34;123206;1100;104342;-76
2023/06/14 00:43:00;;;;;;;27.63;16.63;;;;;;;17.10;78.96;100203.27;123260;1102;104479;-76
2023/06/14 00:45:35;;;;;;;25.43;16.27;;;;;;;17.11;78.64;100215.66;123190;1102;104248;-76
2023/06/14 00:48:09;;;;;;;25.50;15.97;;;;;;;17.13;78.62;100202.41;123316;1101;104284;-76
2023/06/14 00:50:41;;;;;;;26.82;16.15;;;;;;;17.12;79.02;100206.80;123263;1102;104310;-75
2023/06/14 00:53:15;;;;;;;26.02;15.55;;;;;;;17.11;78.87;100202.39;123303;1102;104667;-76
2023/06/14 00:55:46;;;;;;;27.17;16.63;;;;;;;17.13;78.99;100207.70;123232;1102;104360;-75
2023/06/14 00:58:18;;;;;;;26.95;17.20;;;;;;;17.12;79.10;100203.27;123371;1102;104293;-76
2023/06/14 01:00:51;;;;;;;26.20;16.10;;;;;;;17.11;78.84;100202.39;123235;1102;104236;-75
2023/06/14 01:03:22;;;;;;;33.00;17.37;;;;;;;17.12;79.38;100201.50;123294;1102;104542;-75
2023/06/14 01:06:02;;;;;;;27.53;16.33;;;;;;;17.10;79.49;100192.66;123284;1102;104406;-76
2023/06/14 01:08:42;;;;;;;26.23;16.33;;;;;;;17.10;79.55;100192.66;123560;1102;104207;-76
2023/06/14 01:11:20;;;;;;;25.50;15.83;;;;;;;17.11;79.38;100191.80;123183;1102;104332;-76
2023/06/14 01:13:53;;;;;;;24.77;15.83;;;;;;;17.13;79.39;100186.50;123337;1102;104253;-75
2023/06/14 01:16:27;;;;;;;25.40;15.10;;;;;;;17.15;79.30;100184.73;123243;1102;104376;-76
2023/06/14 01:18:59;;;;;;;26.80;15.20;;;;;;;17.14;79.35;100183.86;123291;1102;104233;-76
2023/06/14 01:21:41;;;;;;;26.50;15.07;;;;;;;17.14;79.28;100189.16;123427;1102;104220;-76
2023/06/14 01:24:13;;;;;;;24.53;15.03;;;;;;;17.13;79.48;100184.72;123362;1102;104274;-76
2023/06/14 01:26:46;;;;;;;27.10;15.40;;;;;;;17.13;79.47;100184.72;123350;1102;104429;-76
2023/06/14 01:29:17;;;;;;;27.37;15.87;;;;;;;17.13;79.83;100182.07;123330;1102;104370;-76
2023/06/14 01:31:51;;;;;;;28.77;15.63;;;;;;;17.14;79.58;100185.59;123405;1102;104293;-76
2023/06/14 01:34:22;;;;;;;26.33;15.53;;;;;;;17.14;79.70;100191.80;123606;1101;104284;-77
2023/06/14 01:36:56;;;;;;;26.53;15.60;;;;;;;17.15;79.57;100195.33;123472;1102;104380;-77
2023/06/14 01:39:29;;;;;;;27.23;16.20;;;;;;;17.15;79.91;100206.81;123445;1100;104291;-77
2023/06/14 01:42:01;;;;;;;26.43;15.80;;;;;;;17.15;79.71;100201.51;124019;1101;104759;-78
2023/06/14 01:44:33;;;;;;;28.15;15.90;;;;;;;17.15;79.70;100201.51;123396;1102;104284;-76
2023/06/14 01:47:05;;;;;;;;;;;;;;;17.14;79.76;100204.16;123378;1102;104258;-77
2023/06/14 01:49:37;;;;;;;28.60;16.33;;;;;;;17.15;79.67;100209.46;123368;1101;104249;-75
2023/06/14 01:52:10;;;;;;;30.43;16.00;;;;;;;17.17;79.94;100212.12;123300;1102;104246;-76
2023/06/14 01:54:41;;;;;;;29.47;16.60;;;;;;;17.15;79.84;100209.46;123406;1102;104411;-76
2023/06/14 01:57:13;;;;;;;28.07;17.33;;;;;;;17.15;80.33;100211.23;123473;1102;104467;-76
2023/06/14 01:59:48;;;;;;;29.10;17.50;;;;;;;17.13;80.18;100205.93;123423;1102;104261;-76
2023/06/14 02:02:19;;;;;;;28.67;16.03;;;;;;;17.11;80.44;100218.30;123402;1102;104185;-75
2023/06/14 02:04:50;;;;;;;29.57;17.07;;;;;;;17.10;80.56;100216.52;123392;1102;104364;-76
2023/06/14 02:07:22;;;;;;;29.70;17.27;;;;;;;17.10;80.40;100212.99;123301;1102;104441;-77
2023/06/14 02:09:53;;;;;;;30.37;17.23;;;;;;;17.09;80.84;100211.21;123350;1102;104278;-77
2023/06/14 02:12:24;;;;;;;33.07;17.70;;;;;;;17.09;80.72;100209.44;123314;1101;104294;-78
2023/06/14 02:14:56;;;;;;;32.63;18.67;;;;;;;17.09;80.58;100212.09;123328;1102;104255;-78
2023/06/14 02:17:28;;;;;;;32.60;18.10;;;;;;;17.05;81.09;100213.84;123390;1102;104225;-77
2023/06/14 02:20:00;;;;;;;33.67;17.83;;;;;;;17.00;80.97;100214.69;123469;1102;104373;-77
2023/06/14 02:22:32;;;;;;;30.37;19.07;;;;;;;16.94;81.56;100206.70;123648;1102;104198;-78
2023/06/14 02:25:04;;;;;;;32.55;18.50;;;;;;;16.89;81.33;100215.55;123713;1102;104355;-78
2023/06/14 02:27:35;;;;;;;30.00;18.00;;;;;;;16.85;81.95;100213.70;123585;1102;104175;-79
2023/06/14 02:30:10;;;;;;;29.92;17.85;;;;;;;16.80;82.17;100223.41;123679;1102;104287;-77
2023/06/14 02:32:42;;;;;;;31.07;17.48;;;;;;;16.75;81.68;100221.59;123614;1102;104389;-79
2023/06/14 02:35:14;;;;;;;33.90;19.30;;;;;;;16.73;82.28;100220.71;123711;1102;104350;-78
2023/06/14 02:37:45;;;;;;;34.77;19.87;;;;;;;16.72;82.86;100233.08;123970;1102;104201;-77
2023/06/14 02:40:16;;;;;;;34.87;19.30;;;;;;;16.69;82.42;100231.29;123813;1102;104185;-77
2023/06/14 02:42:48;;;;;;;33.57;19.57;;;;;;;16.66;82.44;100225.09;123705;1102;104421;-76
2023/06/14 02:45:20;;;;;;;33.60;18.97;;;;;;;16.66;82.58;100228.62;123570;1102;104469;-76
2023/06/14 02:47:52;;;;;;;35.43;20.50;;;;;;;16.65;82.57;100225.96;123623;1102;104360;-76
2023/06/14 02:50:23;;;;;;;33.90;19.47;;;;;;;16.65;83.08;100231.26;123587;1102;104358;-79
2023/06/14 02:52:55;;;;;;;33.75;19.10;;;;;;;16.61;83.69;100230.36;123527;1102;104261;-76
2023/06/14 02:55:27;;;;;;;33.03;19.03;;;;;;;16.57;83.75;100225.91;123635;1102;104274;-78
2023/06/14 02:57:59;;;;;;;32.83;19.50;;;;;;;16.54;83.46;100229.41;123454;1103;104389;-77
2023/06/14 03:00:30;;;;;;;34.33;20.30;;;;;;;16.54;84.33;100231.18;123486;1102;104201;-78
2023/06/14 03:03:04;;;;;;;40.80;19.60;;;;;;;16.54;84.64;100232.05;123522;1102;104335;-77
2023/06/14 03:05:34;;;;;;;;;;;;;;;16.49;84.25;100241.74;123580;1102;104666;-79
2023/06/14 03:08:05;;;;;;;35.00;19.90;;;;;;;16.45;84.35;100239.06;123604;1102;104790;-77
2023/06/14 03:10:39;;;;;;;38.03;20.50;;;;;;;16.40;84.58;100248.73;123762;1102;104251;-78
2023/06/14 03:13:11;;;;;;;34.00;19.93;;;;;;;16.33;85.63;100242.48;123794;1102;104233;-77
2023/06/14 03:15:44;;;;;;;40.40;21.25;;;;;;;16.26;85.50;100233.62;123679;1102;104348;-78
2023/06/14 03:18:16;;;;;;;32.10;19.93;;;;;;;16.23;85.15;100238.01;123492;1100;104341;-78
2023/06/14 03:20:47;;;;;;;37.83;22.43;;;;;;;16.19;85.74;100242.40;123534;1102;104416;-77
2023/06/14 03:23:19;;;;;;;36.30;20.97;;;;;;;16.17;85.70;100242.39;123487;1102;104371;-77
2023/06/14 03:25:51;;;;;;;37.07;22.33;;;;;;;16.14;86.29;100245.00;123710;1102;104268;-77
2023/06/14 03:28:22;;;;;;;38.20;21.10;;;;;;;16.11;86.45;100250.27;123620;1102;104238;-78
2023/06/14 03:30:54;;;;;;;37.77;21.80;;;;;;;16.10;86.45;100253.78;123793;1102;104252;-80
2023/06/14 03:33:26;;;;;;;39.00;22.20;;;;;;;16.09;86.71;100251.13;123850;1101;104291;-79
2023/06/14 03:35:57;;;;;;;38.70;22.80;;;;;;;16.07;86.58;100253.75;124030;1102;104430;-77
2023/06/14 03:38:29;;;;;;;39.50;21.90;;;;;;;16.06;87.13;100249.31;123913;1102;104174;-78
2023/06/14 03:41:00;;;;;;;33.93;20.73;;;;;;;16.06;86.93;100256.38;123675;1102;104326;-80
2023/06/14 03:43:33;;;;;;;40.50;22.30;;;;;;;16.03;86.93;100251.94;123809;1102;104345;-79
2023/06/14 03:46:05;;;;;;;37.10;21.17;;;;;;;16.00;87.65;100257.20;123661;1102;104297;-79
2023/06/14 03:48:38;;;;;;;38.50;22.67;;;;;;;15.99;87.52;100250.16;123744;1102;104396;-78
2023/06/14 03:51:09;;;;;;;35.07;21.63;;;;;;;15.94;87.44;100258.05;123647;1102;104281;-78
2023/06/14 03:53:42;;;;;;;39.90;21.87;;;;;;;15.89;88.00;100257.09;124696;1101;104216;-79
2023/06/14 03:56:14;;;;;;;38.23;21.87;;;;;;;15.85;88.60;100263.24;123702;1102;104271;-77
2023/06/14 03:58:47;;;;;;;37.25;21.52;;;;;;;15.83;89.04;100261.44;123483;1101;104242;-76
2023/06/14 04:01:18;;;;;;;38.70;22.87;;;;;;;15.80;89.94;100260.55;123682;1102;104456;-77
2023/06/14 04:03:50;;;;;;;42.23;22.37;;;;;;;15.82;89.37;100263.21;123787;1102;104380;-77
2023/06/14 04:06:22;;;;;;;39.00;22.67;;;;;;;15.84;90.34;100260.58;123676;1102;104275;-79
2023/06/14 04:08:53;;;;;;;39.00;22.47;;;;;;;15.85;91.15;100259.69;123745;1102;104294;-78
2023/06/14 04:11:26;;;;;;;39.03;23.07;;;;;;;15.83;91.25;100254.38;123762;1102;104293;-77
2023/06/14 04:13:57;;;;;;;39.10;22.75;;;;;;;15.86;92.76;100264.13;123646;1102;104339;-76
2023/06/14 04:16:29;;;;;;;41.97;23.13;;;;;;;15.89;92.84;100266.80;123657;1102;104249;-77
2023/06/14 04:19:00;;;;;;;41.40;23.85;;;;;;;15.89;93.28;100261.50;123684;1102;104290;-78
2023/06/14 04:21:34;;;;;;;41.10;24.10;;;;;;;15.88;94.07;100263.28;123702;1102;104207;-76
2023/06/14 04:24:13;;;;;;;38.50;22.90;;;;;;;15.89;94.36;100264.16;123718;1102;105514;-77
2023/06/14 04:26:47;;;;;;;42.33;24.73;;;;;;;15.91;94.62;100260.66;123698;1102;104485;-77
2023/06/14 04:29:20;;;;;;;42.97;24.90;;;;;;;15.94;95.03;100262.43;123823;1102;104259;-76
2023/06/14 04:32:01;;;;;;;39.77;23.70;;;;;;;15.94;96.36;100262.43;123883;1102;104280;-77
2023/06/14 04:34:33;;;;;;;41.47;24.33;;;;;;;15.97;95.66;100262.46;124630;1101;104192;-77
2023/06/14 04:37:22;;;;;;;45.28;26.23;;;;;;;16.03;95.91;100265.17;123890;1102;104271;-77
2023/06/14 04:39:53;;;;;;;40.37;22.83;;;;;;;16.05;95.94;100266.09;123906;1102;104447;-78
2023/06/14 04:42:29;;;;;;;44.77;24.83;;;;;;;16.07;95.85;100260.81;123948;1102;104341;-80
2023/06/14 04:45:01;;;;;;;43.23;24.47;;;;;;;16.11;95.67;100265.24;124153;1102;104370;-78
2023/06/14 04:47:34;;;;;;;44.43;24.57;;;;;;;16.11;96.63;100271.45;123850;1102;104332;-78
2023/06/14 04:50:06;;;;;;;42.47;25.07;;;;;;;16.13;96.96;100264.39;123608;1102;104421;-77
2023/06/14 04:52:38;;;;;;;43.13;23.77;;;;;;;16.15;95.86;100269.70;123967;1102;104245;-77
2023/06/14 04:55:11;;;;;;;43.10;24.03;;;;;;;16.16;95.98;100269.72;123600;1102;104357;-76
2023/06/14 04:57:42;;;;;;;39.90;23.83;;;;;;;16.16;96.19;100266.20;124040;1102;104251;-78
2023/06/14 05:00:15;;;;;;;41.93;24.07;;;;;;;16.19;97.04;100276.81;124302;1102;104331;-76
2023/06/14 05:02:49;;;;;;;42.88;23.98;;;;;;;16.19;97.06;100279.46;124092;1102;104347;-75
2023/06/14 05:05:20;;;;;;;40.40;23.12;;;;;;;16.22;97.49;100278.58;123906;1102;104283;-77
2023/06/14 05:07:52;;;;;;;39.67;22.90;;;;;;;16.22;97.71;100281.23;124107;1102;104689;-77
2023/06/14 05:10:24;;;;;;;39.95;22.95;;;;;;;16.22;97.99;100278.58;123797;1102;104296;-76
2023/06/14 05:12:56;;;;;;;39.90;23.73;;;;;;;16.22;98.11;100278.58;124378;1102;104269;-78
2023/06/14 05:15:28;;;;;;;39.60;24.13;;;;;;;16.25;97.79;100273.31;123756;1102;104346;-78
2023/06/14 05:18:00;;;;;;;43.20;24.07;;;;;;;16.27;99.18;100277.77;123678;1102;104195;-77
2023/06/14 05:20:31;;;;;;;40.20;23.00;;;;;;;16.30;98.62;100292.80;124023;1102;104274;-79
2023/06/14 05:23:02;;;;;;;39.23;23.33;;;;;;;16.32;98.73;100286.62;124293;1102;104245;-76
2023/06/14 05:25:34;;;;;;;38.30;22.27;;;;;;;16.33;98.63;100288.41;124333;1102;104332;-80
2023/06/14 05:28:05;;;;;;;39.30;22.43;;;;;;;16.37;98.90;100286.66;124501;1102;104227;-80
2023/06/14 05:30:37;;;;;;;37.97;22.27;;;;;;;16.42;98.44;100294.64;124501;1102;104345;-78
2023/06/14 05:33:08;;;;;;;39.00;21.53;;;;;;;16.42;98.23;100292.88;124542;1100;104307;-79
2023/06/14 05:35:40;;;;;;;38.27;21.63;;;;;;;16.44;98.56;100290.23;124945;1102;104169;-79
2023/06/14 05:38:11;;;;;;;36.50;21.67;;;;;;;16.50;98.50;100285.91;124544;1102;104252;-78
2023/06/14 05:40:43;;;;;;;37.77;21.53;;;;;;;16.56;99.33;100294.77;124596;1102;104313;-78
2023/06/14 05:43:14;;;;;;;37.30;21.33;;;;;;;16.59;98.76;100297.44;124631;1102;104181;-80
2023/06/14 05:45:45;;;;;;;37.67;22.30;;;;;;;16.61;99.20;100293.94;124944;1102;104245;-80
2023/06/14 05:48:16;;;;;;;35.07;21.33;;;;;;;16.67;98.72;100303.67;124753;1102;102208;-81
2023/06/14 05:50:48;;;;;;;39.20;24.60;;;;;;;16.71;99.10;100302.83;124869;1102;104287;-80
2023/06/14 05:53:19;;;;;;;40.90;23.93;;;;;;;16.75;99.38;100293.12;124349;1102;104383;-78
2023/06/14 05:55:53;;;;;;;35.23;22.10;;;;;;;16.78;99.69;100290.50;124332;1102;104341;-79
2023/06/14 05:58:23;;;;;;;;;;;;;;;16.77;100.00;100294.92;124835;1102;102446;-79
2023/06/14 06:00:55;;;;;;;31.53;19.90;;;;;;;16.79;99.43;100298.46;124620;1102;103254;-80
2023/06/14 06:03:29;;;;;;;36.27;21.50;;;;;;;16.79;99.96;100300.23;124748;1102;104239;-80
2023/06/14 06:06:00;;;;;;;36.48;20.17;;;;;;;16.83;99.72;100302.05;124953;1102;104194;-78
2023/06/14 06:08:35;;;;;;;35.50;21.03;;;;;;;16.85;99.98;100298.51;125055;1102;103323;-80
2023/06/14 06:11:15;;;;;;;35.40;20.53;;;;;;;16.87;100.00;100307.38;124461;1101;102749;-80
2023/06/14 06:13:49;;;;;;;35.30;20.10;;;;;;;16.88;100.00;100298.56;124891;1102;102239;-82
2023/06/14 06:16:21;;;;;;;36.60;21.10;;;;;;;16.91;100.00;100307.40;124959;1102;102079;-80
2023/06/14 06:18:54;;;;;;;33.73;20.10;;;;;;;16.93;100.00;100305.67;124807;1102;104324;-79
2023/06/14 06:21:28;;;;;;;35.77;20.70;;;;;;;16.97;100.00;100312.73;124617;1102;104245;-82
2023/06/14 06:24:05;;;;;;;40.20;21.77;;;;;;;16.99;100.00;100316.31;125004;1102;104168;-81
2023/06/14 06:26:36;;;;;;;33.73;21.07;;;;;;;17.01;100.00;100306.59;124837;1102;103123;-79
2023/06/14 06:29:08;;;;;;;34.93;21.40;;;;;;;16.99;100.00;100306.58;124673;1102;104271;-79
2023/06/14 06:31:41;;;;;;;35.30;21.17;;;;;;;16.99;100.00;100308.36;124775;1102;104341;-80
2023/06/14 06:34:22;;;;;;;36.23;21.60;;;;;;;16.99;100.00;100306.58;124596;1102;104195;-82
2023/06/14 06:37:15;;;;;;;35.77;21.73;;;;;;;17.00;100.00;100308.37;124799;1102;102144;-81
2023/06/14 06:39:49;;;;;;;37.60;21.80;;;;;;;16.99;100.00;100311.01;125418;1102;104185;-78
2023/06/14 06:42:37;;;;;;;39.93;23.00;;;;;;;16.99;100.00;100311.01;124674;1100;101965;-82
2023/06/14 06:45:13;;;;;;;37.40;21.03;;;;;;;17.00;100.00;100307.46;124466;1102;104168;-78
2023/06/14 06:47:45;;;;;;;37.63;22.30;;;;;;;16.98;100.00;100309.22;124425;1102;102784;-79
2023/06/14 06:50:24;;;;;;;38.87;22.47;;;;;;;16.96;100.00;100310.98;124366;1101;103045;-76
2023/06/14 06:53:05;;;;;;;37.00;22.00;;;;;;;16.91;100.00;100307.40;124516;1102;104299;-76
2023/06/14 06:55:42;;;;;;;40.20;23.47;;;;;;;16.91;100.00;100304.75;124538;1102;104280;-77
2023/06/14 06:58:43;;;;;;;35.77;22.63;;;;;;;16.94;100.00;100303.03;124390;1101;117897;-75
2023/06/14 07:01:24;;;;;;;37.00;22.43;;;;;;;17.05;100.00;100301.32;124554;1102;104194;-80
2023/06/14 07:03:57;;;;;;;35.40;21.83;;;;;;;17.17;100.00;100308.47;124618;1102;104320;-81
2023/06/14 07:06:31;;;;;;;39.57;23.53;;;;;;;17.26;100.00;100299.66;124731;1102;102600;-83
2023/06/14 07:09:08;;;;;;;37.87;22.60;;;;;;;17.39;100.00;100303.25;124615;1102;104208;-82
2023/06/14 07:11:37;;;;;;;;;;;;;;;17.53;100.00;100301.57;124468;1102;104201;-85
2023/06/14 07:14:10;;;;;;;35.20;21.37;;;;;;;17.67;100.00;100306.02;124611;1102;102618;-81
2023/06/14 07:16:42;;;;;;;38.40;22.70;;;;;;;17.74;100.00;100313.14;124673;1102;103244;-78
2023/06/14 07:19:15;;;;;;;36.30;21.63;;;;;;;17.79;100.00;100319.34;124377;1102;104182;-77
2023/06/14 07:21:46;;;;;;;37.73;22.93;;;;;;;17.84;100.00;100314.95;124267;1102;102866;-77
2023/06/14 07:24:17;;;;;;;36.57;21.53;;;;;;;17.93;100.00;100322.94;124201;1101;104296;-76
2023/06/14 07:26:51;;;;;;;37.40;23.77;;;;;;;18.07;100.00;100319.45;124715;1102;104299;-80
2023/06/14 07:29:23;;;;;;;34.63;22.03;;;;;;;18.18;100.00;100323.00;124422;1102;104325;-77
2023/06/14 07:31:59;;;;;;;37.00;20.75;;;;;;;18.32;100.00;100315.05;124372;1101;102638;-80
2023/06/14 07:34:31;;;;;;;37.45;21.60;;;;;;;18.41;100.00;100311.53;124595;1102;104217;-79
2023/06/14 07:37:02;;;;;;;40.70;24.00;;;;;;;18.55;100.00;100306.22;124354;1102;105006;-82
2023/06/14 07:39:37;;;;;;;32.50;21.07;;;;;;;18.64;100.00;100312.41;124876;1102;104211;-79
2023/06/14 07:42:11;;;;;;;36.03;22.23;;;;;;;18.75;100.00;100314.20;124822;1100;104255;-82
2023/06/14 07:44:43;;;;;;;35.63;22.50;;;;;;;18.87;100.00;100303.58;124517;1102;104197;-79
2023/06/14 07:47:15;;;;;;;37.20;22.37;;;;;;;19.03;100.00;100312.41;124605;1102;104242;-79
2023/06/14 07:49:46;;;;;;;36.33;18.90;;;;;;;19.15;100.00;100312.38;124275;1102;104318;-82
2023/06/14 07:52:23;;;;;;;28.30;16.00;;;;;;;19.23;100.00;100315.02;124339;1102;104233;-79
2023/06/14 07:55:09;;;;;;;29.80;16.93;;;;;;;19.20;100.00;100310.59;124534;1102;104245;-82
2023/06/14 07:57:40;;;;;;;27.07;16.00;;;;;;;19.30;100.00;100307.91;124499;1102;104277;-81
2023/06/14 08:00:15;;;;;;;27.17;16.30;;;;;;;19.42;100.00;100309.65;124639;1102;102002;-81
2023/06/14 08:02:47;;;;;;;25.93;15.40;;;;;;;19.45;100.00;100312.30;124702;1102;104209;-81
2023/06/14 08:05:19;;;;;;;27.23;15.83;;;;;;;19.47;100.00;100307.84;124522;1099;104866;-81
2023/06/14 08:10:36;;;;;;;27.20;16.07;;;;;;;19.58;100.00;100306.89;124560;1102;104213;-79
2023/06/14 08:13:09;;;;;;;27.20;16.37;;;;;;;19.62;100.00;100307.78;124762;1102;104242;-77
2023/06/14 08:15:41;;;;;;;26.45;15.45;;;;;;;19.66;100.00;100309.52;124718;1102;104207;-80
2023/06/14 08:18:18;;;;;;;27.50;15.30;;;;;;;19.69;100.00;100298.86;124634;1102;102341;-81
2023/06/14 08:20:57;;;;;;;27.03;14.87;;;;;;;19.81;100.00;100315.72;124601;1102;104165;-81
2023/06/14 08:23:29;;;;;;;27.43;14.30;;;;;;;20.00;100.00;100312.04;124337;1102;104242;-77
2023/06/14 08:26:04;;;;;;;27.77;16.23;;;;;;;20.13;100.00;100315.50;124292;1101;104211;-77
2023/06/14 08:28:36;;;;;;;26.90;15.37;;;;;;;20.23;100.00;100311.89;124313;1102;102419;-77
2023/06/14 08:31:09;;;;;;;25.53;14.40;;;;;;;20.37;100.00;100313.59;124245;1102;104152;-78
2023/06/14 08:33:43;;;;;;;26.45;14.47;;;;;;;20.46;100.00;100317.06;124664;1101;102349;-81
2023/06/14 08:36:17;;;;;;;25.08;14.45;;;;;;;20.56;100.00;100314.33;124475;1101;104182;-77
2023/06/14 08:38:49;;;;;;;26.70;15.17;;;;;;;20.73;100.00;100315.09;124449;1102;104210;-78
2023/06/14 08:41:25;;;;;;;27.57;14.70;;;;;;;20.87;100.00;100314.09;124378;1102;104280;-77
2023/06/14 08:43:59;;;;;;;25.40;14.53;;;;;;;20.97;100.00;100310.41;124503;1102;102627;-81
2023/06/14 08:46:38;;;;;;;24.97;14.17;;;;;;;21.16;100.00;100317.34;124778;1102;103109;-78
2023/06/14 08:49:16;;;;;;;22.23;13.50;;;;;;;21.28;100.00;100315.42;124359;1102;104674;-76
2023/06/14 08:51:58;;;;;;;21.07;12.47;;;;;;;21.43;100.00;100317.05;124512;1102;104267;-79
2023/06/14 08:54:43;;;;;;;23.37;12.73;;;;;;;21.64;99.80;100313.24;124419;1102;104181;-77
2023/06/14 08:57:20;;;;;;;27.50;13.60;;;;;;;21.75;100.00;100311.31;124466;1102;104409;-76
2023/06/14 09:00:04;;;;;;;23.18;12.55;;;;;;;21.75;100.00;100311.31;124423;1102;102080;-79
2023/06/14 09:02:36;;;;;;;25.83;13.73;;;;;;;21.80;99.63;100316.59;124594;1102;104195;-79
2023/06/14 09:05:13;;;;;;;25.47;13.27;;;;;;;21.87;99.51;100311.14;124618;1102;104224;-82
2023/06/14 09:07:49;;;;;;;22.93;12.47;;;;;;;21.94;98.53;100308.39;124532;1102;102889;-82
2023/06/14 09:10:21;;;;;;;22.40;12.60;;;;;;;22.02;98.69;100310.06;124313;1102;104396;-77
2023/06/14 09:12:54;;;;;;;22.48;11.68;;;;;;;22.16;99.17;100303.61;124553;1102;104160;-78
2023/06/14 09:15:31;;;;;;;24.73;13.00;;;;;;;22.28;96.94;100307.89;124430;1102;104249;-79
2023/06/14 09:18:03;;;;;;;21.60;11.60;;;;;;;22.31;97.67;100305.20;124344;1101;104242;-79
2023/06/14 09:20:36;;;;;;;22.53;11.27;;;;;;;22.40;96.29;100300.59;124515;1102;104259;-80
2023/06/14 09:23:13;;;;;;;21.33;11.03;;;;;;;22.51;97.27;100305.76;124659;1102;102888;-78
2023/06/14 09:25:52;;;;;;;19.67;11.23;;;;;;;22.71;96.48;100299.20;124650;1102;103534;-79
2023/06/14 09:28:29;;;;;;;20.13;10.40;;;;;;;22.97;96.89;100299.61;124579;1102;104172;-80
2023/06/14 09:31:10;;;;;;;18.57;11.03;;;;;;;23.05;95.68;100293.24;124717;1102;103063;-78
2023/06/14 09:33:47;;;;;;;20.67;10.30;;;;;;;23.14;95.08;100303.80;124703;1102;102585;-79
2023/06/14 09:36:27;;;;;;;20.83;10.23;;;;;;;23.15;94.55;100294.84;126257;1100;102142;-79
2023/06/14 09:39:06;;;;;;;21.17;10.03;;;;;;;23.21;95.17;100289.38;126213;1101;101888;-77
2023/06/14 09:41:43;;;;;;;19.83;10.70;;;;;;;23.27;93.50;100291.06;126001;1102;112636;-78
2023/06/14 09:44:20;;;;;;;20.43;10.60;;;;;;;23.15;94.47;100289.48;125516;1102;102494;-77
2023/06/14 09:46:54;;;;;;;17.50;8.63;;;;;;;23.11;94.05;100303.86;126162;1101;102435;-77
2023/06/14 09:49:32;;;;;;;16.83;9.30;;;;;;;23.09;92.93;100295.87;126266;1099;102471;-79
2023/06/14 09:52:09;;;;;;;19.27;9.23;;;;;;;23.14;92.22;100293.97;126291;1101;103497;-77
2023/06/14 09:54:49;;;;;;;16.90;9.25;;;;;;;23.14;93.47;100288.62;126197;1102;102670;-79
2023/06/14 09:57:25;;;;;;;17.27;9.40;;;;;;;23.17;93.28;100292.14;126157;1101;101381;-78
2023/06/14 10:00:05;;;;;;;19.07;9.10;;;;;;;23.18;93.60;100286.75;124994;1101;103555;-77
2023/06/14 10:02:50;;;;;;;18.90;9.67;;;;;;;23.29;91.68;100286.55;124709;1102;102661;-76
2023/06/14 10:05:24;;;;;;;18.27;9.27;;;;;;;23.40;92.96;100284.52;124654;1102;104207;-78
2023/06/14 10:08:00;;;;;;;18.70;9.10;;;;;;;23.45;92.22;100281.75;124773;1102;102359;-77
2023/06/14 10:10:34;;;;;;;15.13;8.13;;;;;;;23.57;92.34;100281.48;124964;1102;103469;-79
2023/06/14 10:13:06;;;;;;;14.23;8.23;;;;;;;23.67;92.59;100275.03;125066;1102;104162;-80
2023/06/14 10:15:46;;;;;;;14.50;7.65;;;;;;;23.79;90.90;100270.31;124812;1102;102308;-80
2023/06/14 10:18:26;;;;;;;20.07;9.13;;;;;;;23.87;88.44;100273.72;124973;1102;104192;-79
2023/06/14 10:21:14;;;;;;;17.13;8.77;;;;;;;23.94;85.00;100279.84;125122;1102;102263;-80
2023/06/14 10:23:51;;;;;;;16.93;8.87;;;;;;;24.13;85.47;100274.92;124828;1102;102620;-78
2023/06/14 10:26:26;;;;;;;18.63;8.30;;;;;;;24.18;83.54;100268.55;124927;1100;102379;-79
2023/06/14 10:29:02;;;;;;;21.60;8.60;;;;;;;24.34;83.19;100261.00;125036;1102;102330;-79
2023/06/14 10:31:46;;;;;;;14.90;7.97;;;;;;;24.46;82.64;100256.23;124683;1102;102550;-79
2023/06/14 10:34:28;;;;;;;16.17;8.40;;;;;;;24.55;80.00;100272.09;125264;1101;104159;-79
2023/06/14 10:37:07;;;;;;;15.55;7.85;;;;;;;24.53;79.37;100268.58;124758;1102;104222;-80
2023/06/14 10:39:46;;;;;;;14.00;7.07;;;;;;;24.57;78.57;100272.96;124829;1102;104118;-79
2023/06/14 10:42:16;;;;;;;;;;;;;;;24.62;77.25;100264.80;124671;1102;102957;-80
2023/06/14 10:44:55;;;;;;;15.57;6.73;;;;;;;24.75;77.63;100267.12;124635;1102;104239;-79
2023/06/14 10:47:31;;;;;;;12.23;7.00;;;;;;;24.85;77.28;100281.16;124743;1102;103218;-78
2023/06/14 10:50:10;;;;;;;12.17;6.13;;;;;;;24.91;77.07;100277.44;124447;1102;104172;-82
2023/06/14 10:52:45;;;;;;;13.73;6.97;;;;;;;25.07;76.77;100276.11;124535;1102;104816;-79
2023/06/14 10:55:22;;;;;;;12.73;7.13;;;;;;;25.18;75.04;100281.18;124578;1102;103545;-79
2023/06/14 10:57:58;;;;;;;13.80;6.60;;;;;;;25.18;74.52;100270.44;124616;1102;104271;-77
2023/06/14 11:00:30;;;;;;;;;;;;;;;25.17;73.28;100278.54;124389;1100;104179;-77
2023/06/14 11:03:50;;;;;;;14.17;6.73;;;;;;;25.17;72.90;100270.48;124454;1102;105440;-77
2023/06/14 11:06:40;;;;;;;13.57;6.90;;;;;;;25.35;74.18;100278.02;124405;1102;104650;-76
2023/06/14 11:09:56;;;;;;;11.77;6.40;;;;;;;25.43;72.12;100280.48;124412;1102;104245;-80
2023/06/14 11:12:35;;;;;;;10.77;6.00;;;;;;;25.60;71.36;100275.52;124513;1102;104210;-76
2023/06/14 11:15:10;;;;;;;12.63;6.37;;;;;;;25.72;71.38;100276.92;124413;1102;104269;-76
2023/06/14 11:17:54;;;;;;;14.30;6.30;;;;;;;25.84;71.13;100273.00;124503;1102;102201;-73
2023/06/14 11:20:34;;;;;;;11.35;6.30;;;;;;;26.02;71.69;100276.92;124398;1102;104227;-78
2023/06/14 11:25:52;;;;;;;10.10;5.70;;;;;;;26.00;69.19;100273.42;125045;1102;104200;-76
2023/06/14 11:28:40;;;;;;;10.13;5.50;;;;;;;26.05;66.96;100282.20;124695;1102;104242;-78
2023/06/14 11:31:12;;;;;;;10.00;5.53;;;;;;;26.01;66.35;100269.81;124814;1100;102913;-78
2023/06/14 11:33:43;;;;;;;12.03;5.73;;;;;;;25.99;66.42;100277.92;124579;1102;102627;-78